createdAt,value
2022-10-19T00:02:38.201Z,13.65
2022-10-19T00:07:41.588Z,13.05
2022-10-19T00:12:43.717Z,13.48
2022-10-19T00:17:45.886Z,14.43
2022-10-19T00:22:52.174Z,14.18
2022-10-19T00:27:54.462Z,13.95
2022-10-19T00:32:56.514Z,14.90
2022-10-19T00:37:59.944Z,14.60
2022-10-19T00:43:02.011Z,14.07
2022-10-19T00:48:04.333Z,13.68
2022-10-19T00:53:09.746Z,13.23
2022-10-19T00:58:11.910Z,12.77
2022-10-19T01:03:14.418Z,13.05
2022-10-19T01:08:17.937Z,12.82
2022-10-19T01:13:33.323Z,12.55
2022-10-19T01:18:43.276Z,12.45
2022-10-19T01:24:35.917Z,12.50
2022-10-19T01:30:06.768Z,11.35
2022-10-19T01:35:13.241Z,10.27
2022-10-19T01:40:26.151Z,9.50
2022-10-19T01:45:33.647Z,8.70
2022-10-19T01:50:40.475Z,8.00
2022-10-19T01:55:58.125Z,8.07
2022-10-19T02:01:06.294Z,8.50
2022-10-19T02:06:10.958Z,8.60
2022-10-19T02:11:13.157Z,8.35
2022-10-19T02:16:22.198Z,8.32
2022-10-19T02:21:24.844Z,8.63
2022-10-19T02:26:27.439Z,8.23
2022-10-19T02:31:31.404Z,8.15
2022-10-19T02:36:33.789Z,8.05
2022-10-19T02:41:40.606Z,7.38
2022-10-19T02:46:46.938Z,7.38
2022-10-19T02:51:59.669Z,7.55
2022-10-19T02:57:01.978Z,7.13
2022-10-19T03:02:05.462Z,7.28
2022-10-19T03:07:07.533Z,7.05
2022-10-19T03:12:10.147Z,6.93
2022-10-19T03:17:13.863Z,6.97
2022-10-19T03:22:16.123Z,7.10
2022-10-19T03:27:18.203Z,6.63
2022-10-19T03:32:21.626Z,6.55
2022-10-19T03:37:26.509Z,6.65
2022-10-19T03:42:28.619Z,6.75
2022-10-19T03:47:32.425Z,6.80
2022-10-19T03:52:34.700Z,6.88
2022-10-19T03:57:36.970Z,7.60
2022-10-19T04:02:43.274Z,6.53
2022-10-19T04:07:45.374Z,6.18
2022-10-19T04:12:53.675Z,5.82
2022-10-19T04:17:57.571Z,6.00
2022-10-19T04:23:00.372Z,5.85
2022-10-19T04:28:03.534Z,5.72
2022-10-19T04:33:07.582Z,5.72
2022-10-19T04:38:10.809Z,5.90
2022-10-19T04:43:18.132Z,5.80
2022-10-19T04:48:21.992Z,5.25
2022-10-19T04:53:27.409Z,5.95
2022-10-19T04:58:31.849Z,5.20
2022-10-19T05:03:38.138Z,5.40
2022-10-19T05:08:43.119Z,5.45
2022-10-19T05:13:45.924Z,5.18
2022-10-19T05:18:56.532Z,5.53
2022-10-19T05:24:00.016Z,5.72
2022-10-19T05:29:04.844Z,5.43
2022-10-19T05:34:12.171Z,5.30
2022-10-19T05:39:16.547Z,5.60
2022-10-19T05:44:23.775Z,5.53
2022-10-19T05:49:30.180Z,5.60
2022-10-19T05:54:36.224Z,6.03
2022-10-19T05:59:38.739Z,5.70
2022-10-19T06:04:49.030Z,5.70
2022-10-19T06:09:53.440Z,5.25
2022-10-19T06:14:56.045Z,5.65
2022-10-19T06:20:03.597Z,5.32
2022-10-19T06:25:11.459Z,4.80
2022-10-19T06:30:13.964Z,5.20
2022-10-19T06:35:19.988Z,5.63
2022-10-19T06:40:22.773Z,5.80
2022-10-19T06:45:25.476Z,5.65
2022-10-19T06:50:29.647Z,5.65
2022-10-19T06:55:32.108Z,5.43
2022-10-19T07:00:35.005Z,5.88
2022-10-19T07:05:43.339Z,5.35
2022-10-19T07:10:45.814Z,4.72
2022-10-19T07:15:49.051Z,4.40
2022-10-19T07:21:01.440Z,4.00
2022-10-19T07:26:09.961Z,3.92
2022-10-19T07:31:15.655Z,3.50
2022-10-19T07:36:20.406Z,3.92
2022-10-19T07:41:25.064Z,3.58
2022-10-19T07:46:30.786Z,3.08
2022-10-19T07:51:35.559Z,3.40
2022-10-19T07:56:38.640Z,3.38
2022-10-19T08:01:43.454Z,3.35
2022-10-19T08:06:47.666Z,3.50
2022-10-19T08:11:51.461Z,3.28
2022-10-19T08:16:58.644Z,2.92
2022-10-19T08:22:02.588Z,3.20
2022-10-19T08:27:07.513Z,3.50
2022-10-19T08:32:12.382Z,3.67
2022-10-19T08:37:26.242Z,3.50
2022-10-19T08:42:49.034Z,3.60
2022-10-19T08:48:06.445Z,3.85
2022-10-19T08:53:19.475Z,3.20
2022-10-19T08:58:34.756Z,3.72
2022-10-19T09:03:54.884Z,3.40
2022-10-19T09:09:03.701Z,2.95
2022-10-19T09:14:16.888Z,3.53
2022-10-19T09:19:26.510Z,3.88
2022-10-19T09:24:41.998Z,3.85
2022-10-19T09:29:49.612Z,4.95
2022-10-19T09:34:54.378Z,6.05
2022-10-19T09:39:59.305Z,4.50
2022-10-19T09:45:04.148Z,4.15
2022-10-19T09:50:23.838Z,4.20
2022-10-19T09:55:39.000Z,3.90
2022-10-19T10:00:46.293Z,4.28
2022-10-19T10:05:50.744Z,3.80
2022-10-19T10:11:07.791Z,4.07
2022-10-19T10:16:13.887Z,3.90
2022-10-19T10:21:25.741Z,4.43
2022-10-19T10:26:32.540Z,4.20
2022-10-19T10:31:37.552Z,4.40
2022-10-19T10:36:41.761Z,4.63
2022-10-19T10:41:52.529Z,4.82
2022-10-19T10:46:58.624Z,4.68
2022-10-19T10:52:05.790Z,4.65
2022-10-19T10:57:17.080Z,4.45
2022-10-19T11:02:37.516Z,4.60
2022-10-19T11:07:44.656Z,4.45
2022-10-19T11:12:57.498Z,3.55
2022-10-19T11:18:09.456Z,3.90
2022-10-19T11:23:23.737Z,3.78
2022-10-19T11:28:50.809Z,3.33
2022-10-19T11:34:02.573Z,3.30
2022-10-19T11:39:31.384Z,3.13
2022-10-19T11:44:55.321Z,3.08
2022-10-19T11:50:11.688Z,3.00
2022-10-19T11:55:23.288Z,2.65
2022-10-19T12:00:39.589Z,2.72
2022-10-19T12:05:54.694Z,2.58
2022-10-19T12:11:07.923Z,2.40
2022-10-19T12:16:15.865Z,2.70
2022-10-19T12:21:30.877Z,2.10
2022-10-19T12:26:38.780Z,2.30
2022-10-19T12:31:45.381Z,2.38
2022-10-19T12:36:54.715Z,2.25
2022-10-19T12:42:15.909Z,3.10
2022-10-19T12:47:26.657Z,3.50
2022-10-19T12:52:51.446Z,3.88
2022-10-19T12:58:06.642Z,4.40
2022-10-19T13:03:25.121Z,4.53
2022-10-19T13:08:33.573Z,4.63
2022-10-19T13:14:28.475Z,4.60
2022-10-19T13:25:30.572Z,3.88
2022-10-19T13:31:07.051Z,4.25
2022-10-19T13:36:18.049Z,4.45
2022-10-19T13:41:44.745Z,4.00
2022-10-19T13:46:56.751Z,4.32
2022-10-19T13:52:22.612Z,4.68
2022-10-19T13:57:36.661Z,4.50
2022-10-19T14:03:08.063Z,4.97
2022-10-19T14:08:39.461Z,5.20
2022-10-19T14:13:48.065Z,4.60
2022-10-19T14:18:56.414Z,4.60
2022-10-19T14:24:49.372Z,4.47
2022-10-19T14:29:56.495Z,4.80
2022-10-19T14:35:22.750Z,4.97
2022-10-19T14:40:29.096Z,4.65
2022-10-19T14:45:34.576Z,4.95
2022-10-19T14:50:44.630Z,5.30
2022-10-19T14:55:48.712Z,5.28
2022-10-19T15:00:55.391Z,5.03
2022-10-19T15:06:01.773Z,5.78
2022-10-19T15:11:05.067Z,6.10
2022-10-19T15:16:31.315Z,5.20
2022-10-19T15:21:35.674Z,5.60
2022-10-19T15:26:38.811Z,5.10
2022-10-19T15:31:43.081Z,5.35
2022-10-19T15:36:56.601Z,4.45
2022-10-19T15:42:40.220Z,4.50
2022-10-19T15:48:29.578Z,4.22
2022-10-19T15:53:32.384Z,3.88
2022-10-19T15:58:38.243Z,4.45
2022-10-19T16:03:43.086Z,4.25
2022-10-19T16:08:47.050Z,3.95
2022-10-19T16:13:50.199Z,3.72
2022-10-19T16:18:55.711Z,3.78
2022-10-19T16:23:59.721Z,4.10
2022-10-19T16:29:05.841Z,3.83
2022-10-19T16:34:11.750Z,3.05
2022-10-19T16:39:16.083Z,2.80
2022-10-19T16:44:22.457Z,2.70
2022-10-19T16:49:29.520Z,2.60
2022-10-19T16:54:33.133Z,2.42
2022-10-19T16:59:35.911Z,2.60
2022-10-19T17:04:42.340Z,2.30
2022-10-19T17:09:45.146Z,2.40
2022-10-19T17:14:48.757Z,1.98
2022-10-19T17:19:54.733Z,2.63
2022-10-19T17:25:02.464Z,2.40
2022-10-19T17:30:09.696Z,1.95
2022-10-19T17:35:21.324Z,1.90
2022-10-19T17:40:27.010Z,1.80
2022-10-19T17:45:36.851Z,1.67
2022-10-19T17:50:43.300Z,2.08
2022-10-19T17:55:50.644Z,1.80
2022-10-19T18:01:00.030Z,2.08
2022-10-19T18:06:11.169Z,2.20
2022-10-19T18:11:17.194Z,2.20
2022-10-19T18:16:22.480Z,2.22
2022-10-19T18:21:30.914Z,1.77
2022-10-19T18:26:35.992Z,2.90
2022-10-19T18:31:42.354Z,2.03
2022-10-19T18:36:48.464Z,2.28
2022-10-19T18:41:55.099Z,2.08
2022-10-19T18:46:59.569Z,2.00
2022-10-19T18:52:05.419Z,2.00
2022-10-19T18:57:09.688Z,2.10
2022-10-19T19:02:22.493Z,2.10
2022-10-19T19:07:34.181Z,1.90
2022-10-19T19:12:37.411Z,2.30
2022-10-19T19:17:55.373Z,2.42
2022-10-19T19:23:01.189Z,1.98
2022-10-19T19:28:06.798Z,1.90
2022-10-19T19:33:17.160Z,2.47
2022-10-19T19:38:25.283Z,2.38
2022-10-19T19:43:33.235Z,1.98
2022-10-19T19:48:36.626Z,2.00
2022-10-19T19:53:42.266Z,1.90
2022-10-19T19:58:47.604Z,2.30
2022-10-19T20:03:52.728Z,2.22
2022-10-19T20:08:58.832Z,2.28
2022-10-19T20:14:04.583Z,2.22
2022-10-19T20:19:10.549Z,2.08
2022-10-19T20:24:17.946Z,2.20
2022-10-19T20:29:24.893Z,2.20
2022-10-19T20:34:28.131Z,2.03
2022-10-19T20:39:35.817Z,2.47
2022-10-19T20:44:43.936Z,2.80
2022-10-19T20:49:47.999Z,2.25
2022-10-19T20:54:58.294Z,2.10
2022-10-19T21:00:01.444Z,2.13
2022-10-19T21:05:07.793Z,2.30
2022-10-19T21:10:15.966Z,2.60
2022-10-19T21:15:22.193Z,2.60
2022-10-19T21:20:27.714Z,2.60
2022-10-19T21:25:32.600Z,2.53
2022-10-19T21:30:40.448Z,2.80
2022-10-19T21:35:46.907Z,2.85
2022-10-19T21:40:54.724Z,3.00
2022-10-19T21:45:59.462Z,3.00
2022-10-19T21:51:04.068Z,2.70
2022-10-19T21:56:12.237Z,3.10
2022-10-19T22:01:18.878Z,2.58
2022-10-19T22:06:22.446Z,3.30
2022-10-19T22:11:28.003Z,2.83
2022-10-19T22:16:32.655Z,2.72
2022-10-19T22:26:46.675Z,3.10
2022-10-19T22:31:52.227Z,3.00
2022-10-19T22:36:56.340Z,2.75
2022-10-19T22:42:01.529Z,3.10
2022-10-19T22:47:08.318Z,3.70
2022-10-19T22:52:13.520Z,3.08
2022-10-19T22:57:18.044Z,5.18
2022-10-19T23:02:23.745Z,3.58
2022-10-19T23:07:29.007Z,3.90
2022-10-19T23:12:35.197Z,3.10
2022-10-19T23:17:41.903Z,3.20
2022-10-19T23:22:47.753Z,3.53
2022-10-19T23:27:54.607Z,3.08
2022-10-19T23:32:57.902Z,3.60
2022-10-19T23:38:01.107Z,3.45
2022-10-19T23:43:06.163Z,3.60
2022-10-19T23:48:11.496Z,4.00
2022-10-19T23:53:17.505Z,5.20
2022-10-19T23:58:24.821Z,5.50
